sensor_id;sensor_type;location;lat;lon;timestamp;P1;durP1;ratioP1;P2;durP2;ratioP2
30303;SDS011;17112;48.636;10.152;2022-11-15T00:00:23;19.98;;;11.88;;
30303;SDS011;17112;48.636;10.152;2022-11-15T00:02:49;20.05;;;11.65;;
30303;SDS011;17112;48.636;10.152;2022-11-15T00:05:17;18.38;;;10.75;;
30303;SDS011;17112;48.636;10.152;2022-11-15T00:07:42;19.35;;;12.07;;
30303;SDS011;17112;48.636;10.152;2022-11-15T00:10:08;20.42;;;11.68;;
30303;SDS011;17112;48.636;10.152;2022-11-15T00:12:34;18.33;;;12.18;;
30303;SDS011;17112;48.636;10.152;2022-11-15T00:14:59;23.92;;;12.43;;
30303;SDS011;17112;48.636;10.152;2022-11-15T00:17:25;21.92;;;12.35;;
30303;SDS011;17112;48.636;10.152;2022-11-15T00:19:50;21.65;;;13.18;;
30303;SDS011;17112;48.636;10.152;2022-11-15T00:22:16;18.63;;;11.70;;
30303;SDS011;17112;48.636;10.152;2022-11-15T00:24:42;27.00;;;12.52;;
30303;SDS011;17112;48.636;10.152;2022-11-15T00:27:07;16.77;;;11.25;;
30303;SDS011;17112;48.636;10.152;2022-11-15T00:29:33;23.65;;;12.77;;
30303;SDS011;17112;48.636;10.152;2022-11-15T00:31:59;18.23;;;11.10;;
30303;SDS011;17112;48.636;10.152;2022-11-15T00:34:25;18.73;;;11.32;;
30303;SDS011;17112;48.636;10.152;2022-11-15T00:36:50;21.13;;;11.00;;
30303;SDS011;17112;48.636;10.152;2022-11-15T00:39:16;21.73;;;11.63;;
30303;SDS011;17112;48.636;10.152;2022-11-15T00:41:42;18.48;;;10.50;;
30303;SDS011;17112;48.636;10.152;2022-11-15T00:44:07;18.73;;;9.98;;
30303;SDS011;17112;48.636;10.152;2022-11-15T00:46:33;14.73;;;8.95;;
30303;SDS011;17112;48.636;10.152;2022-11-15T00:48:59;14.45;;;9.30;;
30303;SDS011;17112;48.636;10.152;2022-11-15T00:51:24;14.68;;;9.18;;
30303;SDS011;17112;48.636;10.152;2022-11-15T00:53:50;19.15;;;10.20;;
30303;SDS011;17112;48.636;10.152;2022-11-15T00:56:15;20.60;;;10.57;;
30303;SDS011;17112;48.636;10.152;2022-11-15T00:58:41;17.20;;;9.45;;
30303;SDS011;17112;48.636;10.152;2022-11-15T01:01:08;14.10;;;8.80;;
30303;SDS011;17112;48.636;10.152;2022-11-15T01:03:35;15.63;;;9.15;;
30303;SDS011;17112;48.636;10.152;2022-11-15T01:06:01;20.23;;;9.13;;
30303;SDS011;17112;48.636;10.152;2022-11-15T01:08:27;14.10;;;9.05;;
30303;SDS011;17112;48.636;10.152;2022-11-15T01:10:53;14.73;;;9.25;;
30303;SDS011;17112;48.636;10.152;2022-11-15T01:13:19;21.15;;;9.38;;
30303;SDS011;17112;48.636;10.152;2022-11-15T01:15:45;19.75;;;9.35;;
30303;SDS011;17112;48.636;10.152;2022-11-15T01:18:10;14.77;;;8.80;;
30303;SDS011;17112;48.636;10.152;2022-11-15T01:20:40;14.00;;;9.02;;
30303;SDS011;17112;48.636;10.152;2022-11-15T01:23:07;17.10;;;9.55;;
30303;SDS011;17112;48.636;10.152;2022-11-15T01:25:32;16.70;;;9.77;;
30303;SDS011;17112;48.636;10.152;2022-11-15T01:27:58;17.40;;;9.90;;
30303;SDS011;17112;48.636;10.152;2022-11-15T01:30:24;16.05;;;10.43;;
30303;SDS011;17112;48.636;10.152;2022-11-15T01:32:49;16.55;;;9.27;;
30303;SDS011;17112;48.636;10.152;2022-11-15T01:35:15;13.48;;;9.13;;
30303;SDS011;17112;48.636;10.152;2022-11-15T01:37:41;14.45;;;8.77;;
30303;SDS011;17112;48.636;10.152;2022-11-15T01:40:06;13.13;;;8.52;;
30303;SDS011;17112;48.636;10.152;2022-11-15T01:42:32;12.55;;;7.53;;
30303;SDS011;17112;48.636;10.152;2022-11-15T01:44:58;11.90;;;7.47;;
30303;SDS011;17112;48.636;10.152;2022-11-15T01:47:25;12.50;;;7.82;;
30303;SDS011;17112;48.636;10.152;2022-11-15T01:50:03;13.27;;;7.70;;
30303;SDS011;17112;48.636;10.152;2022-11-15T01:52:33;12.10;;;7.57;;
30303;SDS011;17112;48.636;10.152;2022-11-15T01:55:18;12.00;;;7.18;;
30303;SDS011;17112;48.636;10.152;2022-11-15T01:57:50;12.32;;;7.45;;
30303;SDS011;17112;48.636;10.152;2022-11-15T02:00:21;15.07;;;7.85;;
30303;SDS011;17112;48.636;10.152;2022-11-15T02:02:47;11.27;;;7.03;;
30303;SDS011;17112;48.636;10.152;2022-11-15T02:05:13;11.48;;;6.22;;
30303;SDS011;17112;48.636;10.152;2022-11-15T02:07:38;12.18;;;6.60;;
30303;SDS011;17112;48.636;10.152;2022-11-15T02:10:09;15.43;;;7.15;;
30303;SDS011;17112;48.636;10.152;2022-11-15T02:12:38;12.55;;;7.38;;
30303;SDS011;17112;48.636;10.152;2022-11-15T02:15:05;17.13;;;9.20;;
30303;SDS011;17112;48.636;10.152;2022-11-15T02:28:45;14.85;;;8.48;;
30303;SDS011;17112;48.636;10.152;2022-11-15T02:39:46;10.93;;;7.03;;
30303;SDS011;17112;48.636;10.152;2022-11-15T02:45:19;7.53;;;5.47;;
30303;SDS011;17112;48.636;10.152;2022-11-15T02:47:51;11.40;;;6.57;;
30303;SDS011;17112;48.636;10.152;2022-11-15T02:50:23;12.57;;;6.90;;
30303;SDS011;17112;48.636;10.152;2022-11-15T02:52:52;14.00;;;7.82;;
30303;SDS011;17112;48.636;10.152;2022-11-15T02:55:25;12.38;;;7.35;;
30303;SDS011;17112;48.636;10.152;2022-11-15T02:57:52;9.95;;;6.40;;
30303;SDS011;17112;48.636;10.152;2022-11-15T03:00:26;8.55;;;6.05;;
30303;SDS011;17112;48.636;10.152;2022-11-15T03:03:15;11.18;;;6.57;;
30303;SDS011;17112;48.636;10.152;2022-11-15T03:08:39;8.27;;;5.95;;
30303;SDS011;17112;48.636;10.152;2022-11-15T03:13:52;9.00;;;6.45;;
30303;SDS011;17112;48.636;10.152;2022-11-15T03:16:39;12.55;;;6.82;;
30303;SDS011;17112;48.636;10.152;2022-11-15T03:22:08;11.40;;;6.22;;
30303;SDS011;17112;48.636;10.152;2022-11-15T03:24:37;17.40;;;6.55;;
30303;SDS011;17112;48.636;10.152;2022-11-15T03:27:05;18.20;;;5.93;;
30303;SDS011;17112;48.636;10.152;2022-11-15T03:29:36;7.13;;;5.38;;
30303;SDS011;17112;48.636;10.152;2022-11-15T03:32:11;10.10;;;5.97;;
30303;SDS011;17112;48.636;10.152;2022-11-15T03:37:51;9.63;;;5.80;;
30303;SDS011;17112;48.636;10.152;2022-11-15T03:40:24;7.07;;;5.32;;
30303;SDS011;17112;48.636;10.152;2022-11-15T03:43:00;7.88;;;6.05;;
30303;SDS011;17112;48.636;10.152;2022-11-15T03:45:39;17.60;;;6.05;;
30303;SDS011;17112;48.636;10.152;2022-11-15T03:50:38;10.35;;;5.35;;
30303;SDS011;17112;48.636;10.152;2022-11-15T03:53:04;8.43;;;5.60;;
30303;SDS011;17112;48.636;10.152;2022-11-15T03:55:31;7.60;;;5.45;;
30303;SDS011;17112;48.636;10.152;2022-11-15T03:57:58;8.48;;;5.25;;
30303;SDS011;17112;48.636;10.152;2022-11-15T04:00:25;7.38;;;5.40;;
30303;SDS011;17112;48.636;10.152;2022-11-15T04:02:52;8.75;;;5.60;;
30303;SDS011;17112;48.636;10.152;2022-11-15T04:05:17;8.57;;;5.03;;
30303;SDS011;17112;48.636;10.152;2022-11-15T04:07:43;6.20;;;5.07;;
30303;SDS011;17112;48.636;10.152;2022-11-15T04:10:12;6.40;;;5.18;;
30303;SDS011;17112;48.636;10.152;2022-11-15T04:12:39;10.60;;;5.22;;
30303;SDS011;17112;48.636;10.152;2022-11-15T04:15:12;6.63;;;4.63;;
30303;SDS011;17112;48.636;10.152;2022-11-15T04:17:47;7.47;;;4.82;;
30303;SDS011;17112;48.636;10.152;2022-11-15T04:20:21;7.38;;;4.80;;
30303;SDS011;17112;48.636;10.152;2022-11-15T04:23:11;6.00;;;4.45;;
30303;SDS011;17112;48.636;10.152;2022-11-15T04:25:58;7.00;;;4.95;;
30303;SDS011;17112;48.636;10.152;2022-11-15T04:28:27;27.85;;;5.80;;
30303;SDS011;17112;48.636;10.152;2022-11-15T04:30:53;9.68;;;4.82;;
30303;SDS011;17112;48.636;10.152;2022-11-15T04:33:18;15.90;;;4.30;;
30303;SDS011;17112;48.636;10.152;2022-11-15T04:35:45;20.50;;;4.00;;
30303;SDS011;17112;48.636;10.152;2022-11-15T04:38:31;31.98;;;4.68;;
30303;SDS011;17112;48.636;10.152;2022-11-15T04:40:57;46.30;;;4.75;;
30303;SDS011;17112;48.636;10.152;2022-11-15T04:43:24;24.05;;;4.47;;
30303;SDS011;17112;48.636;10.152;2022-11-15T04:45:49;26.77;;;4.93;;
30303;SDS011;17112;48.636;10.152;2022-11-15T04:48:15;14.00;;;4.95;;
30303;SDS011;17112;48.636;10.152;2022-11-15T04:50:41;15.93;;;4.50;;
30303;SDS011;17112;48.636;10.152;2022-11-15T04:53:06;36.58;;;4.80;;
30303;SDS011;17112;48.636;10.152;2022-11-15T04:55:32;10.25;;;4.50;;
30303;SDS011;17112;48.636;10.152;2022-11-15T04:58:01;22.23;;;4.65;;
30303;SDS011;17112;48.636;10.152;2022-11-15T05:00:27;15.32;;;4.60;;
30303;SDS011;17112;48.636;10.152;2022-11-15T05:02:54;7.70;;;4.70;;
30303;SDS011;17112;48.636;10.152;2022-11-15T05:05:38;8.70;;;4.90;;
30303;SDS011;17112;48.636;10.152;2022-11-15T05:08:04;9.38;;;5.45;;
30303;SDS011;17112;48.636;10.152;2022-11-15T05:10:30;7.95;;;5.75;;
30303;SDS011;17112;48.636;10.152;2022-11-15T05:12:55;10.18;;;5.65;;
30303;SDS011;17112;48.636;10.152;2022-11-15T05:15:21;9.30;;;5.80;;
30303;SDS011;17112;48.636;10.152;2022-11-15T05:17:47;10.50;;;6.20;;
30303;SDS011;17112;48.636;10.152;2022-11-15T05:20:13;7.07;;;5.78;;
30303;SDS011;17112;48.636;10.152;2022-11-15T05:22:38;7.32;;;5.78;;
30303;SDS011;17112;48.636;10.152;2022-11-15T05:25:05;9.23;;;5.90;;
30303;SDS011;17112;48.636;10.152;2022-11-15T05:27:31;8.63;;;6.00;;
30303;SDS011;17112;48.636;10.152;2022-11-15T05:29:58;7.95;;;5.93;;
30303;SDS011;17112;48.636;10.152;2022-11-15T05:32:23;13.98;;;7.45;;
30303;SDS011;17112;48.636;10.152;2022-11-15T05:34:49;18.77;;;8.60;;
30303;SDS011;17112;48.636;10.152;2022-11-15T05:37:15;22.75;;;14.27;;
30303;SDS011;17112;48.636;10.152;2022-11-15T05:39:41;31.60;;;16.35;;
30303;SDS011;17112;48.636;10.152;2022-11-15T05:42:16;35.47;;;18.83;;
30303;SDS011;17112;48.636;10.152;2022-11-15T05:44:43;32.55;;;18.33;;
30303;SDS011;17112;48.636;10.152;2022-11-15T05:47:13;30.02;;;17.08;;
30303;SDS011;17112;48.636;10.152;2022-11-15T05:49:49;30.45;;;15.57;;
30303;SDS011;17112;48.636;10.152;2022-11-15T05:52:19;28.58;;;14.80;;
30303;SDS011;17112;48.636;10.152;2022-11-15T05:54:47;28.42;;;15.23;;
30303;SDS011;17112;48.636;10.152;2022-11-15T05:57:14;17.55;;;11.75;;
30303;SDS011;17112;48.636;10.152;2022-11-15T05:59:40;18.80;;;13.00;;
30303;SDS011;17112;48.636;10.152;2022-11-15T06:02:08;18.52;;;11.77;;
30303;SDS011;17112;48.636;10.152;2022-11-15T06:04:34;29.80;;;14.50;;
30303;SDS011;17112;48.636;10.152;2022-11-15T06:07:00;60.22;;;23.77;;
30303;SDS011;17112;48.636;10.152;2022-11-15T06:09:25;40.65;;;19.63;;
30303;SDS011;17112;48.636;10.152;2022-11-15T06:11:51;32.42;;;16.70;;
30303;SDS011;17112;48.636;10.152;2022-11-15T06:14:17;28.90;;;15.02;;
30303;SDS011;17112;48.636;10.152;2022-11-15T06:16:43;25.60;;;14.20;;
30303;SDS011;17112;48.636;10.152;2022-11-15T06:19:09;27.08;;;12.65;;
30303;SDS011;17112;48.636;10.152;2022-11-15T06:21:34;25.60;;;13.23;;
30303;SDS011;17112;48.636;10.152;2022-11-15T06:24:00;22.00;;;11.73;;
30303;SDS011;17112;48.636;10.152;2022-11-15T06:26:26;20.88;;;12.27;;
30303;SDS011;17112;48.636;10.152;2022-11-15T06:28:52;22.63;;;11.63;;
30303;SDS011;17112;48.636;10.152;2022-11-15T06:31:17;25.02;;;12.88;;
30303;SDS011;17112;48.636;10.152;2022-11-15T06:33:43;21.17;;;12.10;;
30303;SDS011;17112;48.636;10.152;2022-11-15T06:36:10;24.48;;;12.05;;
30303;SDS011;17112;48.636;10.152;2022-11-15T06:38:41;25.08;;;12.77;;
30303;SDS011;17112;48.636;10.152;2022-11-15T06:41:08;20.15;;;11.77;;
30303;SDS011;17112;48.636;10.152;2022-11-15T06:43:35;24.90;;;12.50;;
30303;SDS011;17112;48.636;10.152;2022-11-15T06:46:01;19.08;;;10.57;;
30303;SDS011;17112;48.636;10.152;2022-11-15T06:48:28;18.63;;;11.10;;
30303;SDS011;17112;48.636;10.152;2022-11-15T06:50:55;19.42;;;10.50;;
30303;SDS011;17112;48.636;10.152;2022-11-15T06:53:22;20.25;;;11.82;;
30303;SDS011;17112;48.636;10.152;2022-11-15T06:55:48;25.35;;;12.13;;
30303;SDS011;17112;48.636;10.152;2022-11-15T06:58:14;20.08;;;12.45;;
30303;SDS011;17112;48.636;10.152;2022-11-15T07:00:40;22.52;;;12.15;;
30303;SDS011;17112;48.636;10.152;2022-11-15T07:03:06;22.83;;;12.73;;
30303;SDS011;17112;48.636;10.152;2022-11-15T07:05:33;18.83;;;10.85;;
30303;SDS011;17112;48.636;10.152;2022-11-15T07:07:59;11.45;;;7.53;;
30303;SDS011;17112;48.636;10.152;2022-11-15T07:10:26;10.30;;;6.97;;
30303;SDS011;17112;48.636;10.152;2022-11-15T07:12:52;10.02;;;6.15;;
30303;SDS011;17112;48.636;10.152;2022-11-15T07:15:19;8.68;;;6.28;;
30303;SDS011;17112;48.636;10.152;2022-11-15T07:17:45;8.57;;;6.35;;
30303;SDS011;17112;48.636;10.152;2022-11-15T07:20:11;8.77;;;6.57;;
30303;SDS011;17112;48.636;10.152;2022-11-15T07:22:41;12.52;;;6.20;;
30303;SDS011;17112;48.636;10.152;2022-11-15T07:25:07;9.68;;;6.32;;
30303;SDS011;17112;48.636;10.152;2022-11-15T07:27:33;12.07;;;6.72;;
30303;SDS011;17112;48.636;10.152;2022-11-15T07:29:59;10.27;;;7.28;;
30303;SDS011;17112;48.636;10.152;2022-11-15T07:32:25;11.57;;;6.93;;
30303;SDS011;17112;48.636;10.152;2022-11-15T07:34:50;12.25;;;7.20;;
30303;SDS011;17112;48.636;10.152;2022-11-15T07:37:16;10.75;;;7.63;;
30303;SDS011;17112;48.636;10.152;2022-11-15T07:39:42;10.45;;;6.85;;
30303;SDS011;17112;48.636;10.152;2022-11-15T07:42:08;11.43;;;7.93;;
30303;SDS011;17112;48.636;10.152;2022-11-15T07:44:52;9.52;;;6.72;;
30303;SDS011;17112;48.636;10.152;2022-11-15T07:47:18;8.18;;;5.82;;
30303;SDS011;17112;48.636;10.152;2022-11-15T07:49:44;10.80;;;6.30;;
30303;SDS011;17112;48.636;10.152;2022-11-15T07:52:11;8.13;;;5.68;;
30303;SDS011;17112;48.636;10.152;2022-11-15T07:54:37;8.23;;;6.05;;
30303;SDS011;17112;48.636;10.152;2022-11-15T07:57:03;10.70;;;5.85;;
30303;SDS011;17112;48.636;10.152;2022-11-15T07:59:29;13.00;;;6.53;;
30303;SDS011;17112;48.636;10.152;2022-11-15T08:01:55;9.05;;;5.97;;
30303;SDS011;17112;48.636;10.152;2022-11-15T08:04:21;10.25;;;6.43;;
30303;SDS011;17112;48.636;10.152;2022-11-15T08:06:46;8.10;;;6.20;;
30303;SDS011;17112;48.636;10.152;2022-11-15T08:09:12;10.88;;;6.47;;
30303;SDS011;17112;48.636;10.152;2022-11-15T08:11:38;8.90;;;5.93;;
30303;SDS011;17112;48.636;10.152;2022-11-15T08:14:03;9.02;;;5.53;;
30303;SDS011;17112;48.636;10.152;2022-11-15T08:16:29;10.20;;;5.90;;
30303;SDS011;17112;48.636;10.152;2022-11-15T08:18:55;9.90;;;6.03;;
30303;SDS011;17112;48.636;10.152;2022-11-15T08:21:21;8.30;;;5.85;;
30303;SDS011;17112;48.636;10.152;2022-11-15T08:23:49;10.10;;;6.20;;
30303;SDS011;17112;48.636;10.152;2022-11-15T08:26:14;17.10;;;6.40;;
30303;SDS011;17112;48.636;10.152;2022-11-15T08:28:40;15.63;;;6.18;;
30303;SDS011;17112;48.636;10.152;2022-11-15T08:31:06;9.13;;;6.18;;
30303;SDS011;17112;48.636;10.152;2022-11-15T08:33:32;9.35;;;6.07;;
30303;SDS011;17112;48.636;10.152;2022-11-15T08:35:58;12.52;;;5.75;;
30303;SDS011;17112;48.636;10.152;2022-11-15T08:38:25;9.32;;;6.10;;
30303;SDS011;17112;48.636;10.152;2022-11-15T08:40:53;10.85;;;5.78;;
30303;SDS011;17112;48.636;10.152;2022-11-15T08:43:26;8.38;;;5.93;;
30303;SDS011;17112;48.636;10.152;2022-11-15T08:45:55;18.70;;;7.00;;
30303;SDS011;17112;48.636;10.152;2022-11-15T08:48:21;10.10;;;6.65;;
30303;SDS011;17112;48.636;10.152;2022-11-15T08:50:48;12.75;;;7.07;;
30303;SDS011;17112;48.636;10.152;2022-11-15T08:53:14;12.80;;;7.82;;
30303;SDS011;17112;48.636;10.152;2022-11-15T08:55:40;15.27;;;8.82;;
30303;SDS011;17112;48.636;10.152;2022-11-15T08:58:06;18.27;;;9.43;;
30303;SDS011;17112;48.636;10.152;2022-11-15T09:00:32;14.73;;;8.40;;
30303;SDS011;17112;48.636;10.152;2022-11-15T09:02:58;14.50;;;8.27;;
30303;SDS011;17112;48.636;10.152;2022-11-15T09:05:24;14.95;;;9.30;;
30303;SDS011;17112;48.636;10.152;2022-11-15T09:07:53;18.38;;;9.23;;
30303;SDS011;17112;48.636;10.152;2022-11-15T09:10:19;14.07;;;8.60;;
30303;SDS011;17112;48.636;10.152;2022-11-15T09:12:45;15.55;;;8.07;;
30303;SDS011;17112;48.636;10.152;2022-11-15T09:15:13;14.70;;;10.05;;
30303;SDS011;17112;48.636;10.152;2022-11-15T09:17:40;19.48;;;8.73;;
30303;SDS011;17112;48.636;10.152;2022-11-15T09:20:06;13.18;;;8.50;;
30303;SDS011;17112;48.636;10.152;2022-11-15T09:22:32;15.27;;;8.52;;
30303;SDS011;17112;48.636;10.152;2022-11-15T09:24:58;22.25;;;9.57;;
30303;SDS011;17112;48.636;10.152;2022-11-15T09:27:27;19.13;;;9.30;;
30303;SDS011;17112;48.636;10.152;2022-11-15T09:29:53;21.15;;;10.60;;
30303;SDS011;17112;48.636;10.152;2022-11-15T09:32:19;26.92;;;10.65;;
30303;SDS011;17112;48.636;10.152;2022-11-15T09:34:45;16.02;;;9.25;;
30303;SDS011;17112;48.636;10.152;2022-11-15T09:37:10;17.27;;;9.18;;
30303;SDS011;17112;48.636;10.152;2022-11-15T09:39:37;21.55;;;11.30;;
30303;SDS011;17112;48.636;10.152;2022-11-15T09:44:52;17.10;;;9.75;;
30303;SDS011;17112;48.636;10.152;2022-11-15T09:50:07;16.60;;;8.90;;
30303;SDS011;17112;48.636;10.152;2022-11-15T09:52:35;13.80;;;7.82;;
30303;SDS011;17112;48.636;10.152;2022-11-15T09:55:02;15.68;;;8.40;;
30303;SDS011;17112;48.636;10.152;2022-11-15T09:57:39;14.13;;;7.35;;
30303;SDS011;17112;48.636;10.152;2022-11-15T10:00:18;12.07;;;8.18;;
30303;SDS011;17112;48.636;10.152;2022-11-15T10:02:51;11.57;;;7.30;;
30303;SDS011;17112;48.636;10.152;2022-11-15T10:05:22;14.90;;;7.55;;
30303;SDS011;17112;48.636;10.152;2022-11-15T10:07:54;13.05;;;7.70;;
30303;SDS011;17112;48.636;10.152;2022-11-15T10:10:42;11.68;;;6.53;;
30303;SDS011;17112;48.636;10.152;2022-11-15T10:13:28;16.95;;;6.80;;
30303;SDS011;17112;48.636;10.152;2022-11-15T10:21:20;10.18;;;6.53;;
30303;SDS011;17112;48.636;10.152;2022-11-15T10:23:50;10.73;;;6.43;;
30303;SDS011;17112;48.636;10.152;2022-11-15T10:26:16;11.15;;;5.53;;
30303;SDS011;17112;48.636;10.152;2022-11-15T10:28:42;9.32;;;5.88;;
30303;SDS011;17112;48.636;10.152;2022-11-15T10:31:21;7.40;;;5.30;;
30303;SDS011;17112;48.636;10.152;2022-11-15T10:33:49;13.15;;;5.68;;
30303;SDS011;17112;48.636;10.152;2022-11-15T10:36:19;10.90;;;6.30;;
30303;SDS011;17112;48.636;10.152;2022-11-15T10:41:21;12.00;;;5.57;;
30303;SDS011;17112;48.636;10.152;2022-11-15T10:46:50;15.32;;;7.18;;
30303;SDS011;17112;48.636;10.152;2022-11-15T10:49:31;12.23;;;6.82;;
30303;SDS011;17112;48.636;10.152;2022-11-15T10:52:00;14.00;;;6.90;;
30303;SDS011;17112;48.636;10.152;2022-11-15T10:54:34;11.38;;;7.43;;
30303;SDS011;17112;48.636;10.152;2022-11-15T10:57:48;17.10;;;9.50;;
30303;SDS011;17112;48.636;10.152;2022-11-15T11:07:27;10.68;;;6.78;;
30303;SDS011;17112;48.636;10.152;2022-11-15T11:09:58;12.73;;;7.75;;
30303;SDS011;17112;48.636;10.152;2022-11-15T11:12:31;10.68;;;7.45;;
30303;SDS011;17112;48.636;10.152;2022-11-15T11:14:59;14.10;;;7.40;;
30303;SDS011;17112;48.636;10.152;2022-11-15T11:31:05;7.80;;;5.50;;
30303;SDS011;17112;48.636;10.152;2022-11-15T11:33:44;7.15;;;5.25;;
30303;SDS011;17112;48.636;10.152;2022-11-15T11:49:41;5.07;;;3.97;;
30303;SDS011;17112;48.636;10.152;2022-11-15T11:55:28;5.40;;;4.00;;
30303;SDS011;17112;48.636;10.152;2022-11-15T11:58:05;5.35;;;4.05;;
30303;SDS011;17112;48.636;10.152;2022-11-15T12:00:39;6.35;;;4.15;;
30303;SDS011;17112;48.636;10.152;2022-11-15T12:03:19;4.93;;;3.70;;
30303;SDS011;17112;48.636;10.152;2022-11-15T12:05:58;5.40;;;4.13;;
30303;SDS011;17112;48.636;10.152;2022-11-15T12:08:52;7.18;;;3.88;;
30303;SDS011;17112;48.636;10.152;2022-11-15T12:11:30;6.47;;;3.50;;
30303;SDS011;17112;48.636;10.152;2022-11-15T12:14:25;4.50;;;3.33;;
30303;SDS011;17112;48.636;10.152;2022-11-15T12:16:57;4.57;;;3.40;;
30303;SDS011;17112;48.636;10.152;2022-11-15T12:19:23;4.18;;;3.33;;
30303;SDS011;17112;48.636;10.152;2022-11-15T12:24:26;8.35;;;3.78;;
30303;SDS011;17112;48.636;10.152;2022-11-15T12:29:41;6.90;;;4.00;;
30303;SDS011;17112;48.636;10.152;2022-11-15T12:32:29;4.60;;;3.70;;
30303;SDS011;17112;48.636;10.152;2022-11-15T12:34:58;5.63;;;3.60;;
30303;SDS011;17112;48.636;10.152;2022-11-15T12:45:25;6.10;;;3.63;;
30303;SDS011;17112;48.636;10.152;2022-11-15T12:53:32;6.30;;;3.30;;
30303;SDS011;17112;48.636;10.152;2022-11-15T12:58:57;6.63;;;3.40;;
30303;SDS011;17112;48.636;10.152;2022-11-15T13:17:28;3.97;;;3.35;;
30303;SDS011;17112;48.636;10.152;2022-11-15T13:22:43;5.28;;;3.95;;
30303;SDS011;17112;48.636;10.152;2022-11-15T13:25:16;5.63;;;3.58;;
30303;SDS011;17112;48.636;10.152;2022-11-15T13:30:39;5.10;;;3.45;;
30303;SDS011;17112;48.636;10.152;2022-11-15T13:33:15;3.22;;;2.92;;
30303;SDS011;17112;48.636;10.152;2022-11-15T13:35:45;3.70;;;3.30;;
30303;SDS011;17112;48.636;10.152;2022-11-15T13:38:18;5.65;;;3.50;;
30303;SDS011;17112;48.636;10.152;2022-11-15T13:40:52;5.75;;;3.08;;
30303;SDS011;17112;48.636;10.152;2022-11-15T13:48:41;5.90;;;3.08;;
30303;SDS011;17112;48.636;10.152;2022-11-15T13:51:22;6.22;;;3.60;;
30303;SDS011;17112;48.636;10.152;2022-11-15T14:00:03;6.28;;;3.40;;
30303;SDS011;17112;48.636;10.152;2022-11-15T14:02:35;5.43;;;3.63;;
30303;SDS011;17112;48.636;10.152;2022-11-15T14:05:04;4.25;;;3.53;;
30303;SDS011;17112;48.636;10.152;2022-11-15T14:07:59;5.57;;;3.67;;
30303;SDS011;17112;48.636;10.152;2022-11-15T14:10:38;5.50;;;3.60;;
30303;SDS011;17112;48.636;10.152;2022-11-15T14:13:09;4.82;;;3.92;;
30303;SDS011;17112;48.636;10.152;2022-11-15T14:15:51;5.75;;;4.40;;
30303;SDS011;17112;48.636;10.152;2022-11-15T14:21:10;7.57;;;4.35;;
30303;SDS011;17112;48.636;10.152;2022-11-15T14:23:36;8.10;;;5.28;;
30303;SDS011;17112;48.636;10.152;2022-11-15T14:26:02;6.25;;;4.13;;
30303;SDS011;17112;48.636;10.152;2022-11-15T14:28:29;6.03;;;4.55;;
30303;SDS011;17112;48.636;10.152;2022-11-15T14:30:58;5.40;;;4.47;;
30303;SDS011;17112;48.636;10.152;2022-11-15T14:35:55;10.13;;;5.75;;
30303;SDS011;17112;48.636;10.152;2022-11-15T14:38:22;7.13;;;5.32;;
30303;SDS011;17112;48.636;10.152;2022-11-15T14:40:49;6.68;;;4.95;;
30303;SDS011;17112;48.636;10.152;2022-11-15T14:43:15;6.20;;;4.95;;
30303;SDS011;17112;48.636;10.152;2022-11-15T14:45:41;9.35;;;5.25;;
30303;SDS011;17112;48.636;10.152;2022-11-15T14:48:07;5.78;;;4.88;;
30303;SDS011;17112;48.636;10.152;2022-11-15T14:50:34;8.00;;;5.00;;
30303;SDS011;17112;48.636;10.152;2022-11-15T14:53:00;6.28;;;4.78;;
30303;SDS011;17112;48.636;10.152;2022-11-15T14:55:27;8.38;;;5.13;;
30303;SDS011;17112;48.636;10.152;2022-11-15T14:57:56;6.63;;;4.63;;
30303;SDS011;17112;48.636;10.152;2022-11-15T15:00:22;8.38;;;4.88;;
30303;SDS011;17112;48.636;10.152;2022-11-15T15:02:50;6.30;;;4.75;;
30303;SDS011;17112;48.636;10.152;2022-11-15T15:05:25;9.38;;;5.53;;
30303;SDS011;17112;48.636;10.152;2022-11-15T15:08:02;5.70;;;4.93;;
30303;SDS011;17112;48.636;10.152;2022-11-15T15:10:36;7.55;;;5.32;;
30303;SDS011;17112;48.636;10.152;2022-11-15T15:13:03;21.77;;;7.90;;
30303;SDS011;17112;48.636;10.152;2022-11-15T15:15:36;20.33;;;7.40;;
30303;SDS011;17112;48.636;10.152;2022-11-15T15:18:03;15.15;;;6.32;;
30303;SDS011;17112;48.636;10.152;2022-11-15T15:20:30;10.73;;;6.07;;
30303;SDS011;17112;48.636;10.152;2022-11-15T15:22:56;10.23;;;5.35;;
30303;SDS011;17112;48.636;10.152;2022-11-15T15:25:23;10.38;;;6.43;;
30303;SDS011;17112;48.636;10.152;2022-11-15T15:27:58;11.10;;;6.25;;
30303;SDS011;17112;48.636;10.152;2022-11-15T15:30:24;11.45;;;6.13;;
30303;SDS011;17112;48.636;10.152;2022-11-15T15:32:50;9.07;;;6.20;;
30303;SDS011;17112;48.636;10.152;2022-11-15T15:35:16;9.98;;;6.38;;
30303;SDS011;17112;48.636;10.152;2022-11-15T15:37:43;10.25;;;6.30;;
30303;SDS011;17112;48.636;10.152;2022-11-15T15:40:13;16.75;;;6.47;;
30303;SDS011;17112;48.636;10.152;2022-11-15T15:42:40;9.05;;;6.30;;
30303;SDS011;17112;48.636;10.152;2022-11-15T15:45:07;9.85;;;6.35;;
30303;SDS011;17112;48.636;10.152;2022-11-15T15:47:34;11.00;;;7.25;;
30303;SDS011;17112;48.636;10.152;2022-11-15T15:50:00;9.80;;;7.20;;
30303;SDS011;17112;48.636;10.152;2022-11-15T15:52:25;8.90;;;6.90;;
30303;SDS011;17112;48.636;10.152;2022-11-15T15:54:51;13.65;;;7.78;;
30303;SDS011;17112;48.636;10.152;2022-11-15T15:57:17;10.55;;;7.32;;
30303;SDS011;17112;48.636;10.152;2022-11-15T15:59:43;8.45;;;7.10;;
30303;SDS011;17112;48.636;10.152;2022-11-15T16:02:11;11.43;;;7.80;;
30303;SDS011;17112;48.636;10.152;2022-11-15T16:04:37;10.52;;;7.25;;
30303;SDS011;17112;48.636;10.152;2022-11-15T16:07:03;10.50;;;7.18;;
30303;SDS011;17112;48.636;10.152;2022-11-15T16:09:31;7.55;;;6.32;;
30303;SDS011;17112;48.636;10.152;2022-11-15T16:12:15;11.45;;;7.03;;
30303;SDS011;17112;48.636;10.152;2022-11-15T16:14:42;8.95;;;6.85;;
30303;SDS011;17112;48.636;10.152;2022-11-15T16:17:15;10.65;;;8.05;;
30303;SDS011;17112;48.636;10.152;2022-11-15T16:19:44;25.30;;;8.45;;
30303;SDS011;17112;48.636;10.152;2022-11-15T16:22:10;12.77;;;8.75;;
30303;SDS011;17112;48.636;10.152;2022-11-15T16:24:36;13.45;;;8.65;;
30303;SDS011;17112;48.636;10.152;2022-11-15T16:27:02;13.30;;;8.77;;
30303;SDS011;17112;48.636;10.152;2022-11-15T16:29:27;17.55;;;10.25;;
30303;SDS011;17112;48.636;10.152;2022-11-15T16:31:53;17.75;;;10.77;;
30303;SDS011;17112;48.636;10.152;2022-11-15T16:34:19;18.05;;;11.77;;
30303;SDS011;17112;48.636;10.152;2022-11-15T16:36:45;19.30;;;11.40;;
30303;SDS011;17112;48.636;10.152;2022-11-15T16:39:11;17.30;;;11.75;;
30303;SDS011;17112;48.636;10.152;2022-11-15T16:41:38;21.92;;;10.80;;
30303;SDS011;17112;48.636;10.152;2022-11-15T16:44:04;15.52;;;9.90;;
30303;SDS011;17112;48.636;10.152;2022-11-15T16:46:30;15.73;;;9.88;;
30303;SDS011;17112;48.636;10.152;2022-11-15T16:48:56;14.52;;;9.50;;
30303;SDS011;17112;48.636;10.152;2022-11-15T16:51:22;16.20;;;10.00;;
30303;SDS011;17112;48.636;10.152;2022-11-15T16:53:48;18.05;;;9.38;;
30303;SDS011;17112;48.636;10.152;2022-11-15T16:56:22;14.18;;;9.63;;
30303;SDS011;17112;48.636;10.152;2022-11-15T16:58:48;16.02;;;9.13;;
30303;SDS011;17112;48.636;10.152;2022-11-15T17:01:18;18.83;;;10.18;;
30303;SDS011;17112;48.636;10.152;2022-11-15T17:03:48;14.52;;;10.43;;